Time;durP1;ratioP1;P1;durP2;ratioP2;P2;SDS_P1;SDS_P2;PMS_P1;PMS_P2;Temp;Humidity;BMP_temperature;BMP_pressure;BME280_temperature;BME280_humidity;BME280_pressure;Samples;Min_cycle;Max_cycle;Signal;HPM_P1;HPM_P2
2022/06/12 00:00:25;;;;;;;6.43;2.40;;;18.20;78.20;;;;;;5036859;28;20071;-69
2022/06/12 00:02:51;;;;;;;2.58;1.80;;;18.20;78.10;;;;;;5031943;28;20030;-70
2022/06/12 00:05:19;;;;;;;2.88;1.83;;;18.20;77.90;;;;;;5039423;28;20116;-72
2022/06/12 00:07:45;;;;;;;3.92;2.10;;;18.20;77.80;;;;;;5036410;28;20119;-71
2022/06/12 00:10:11;;;;;;;6.20;2.60;;;18.20;78.10;;;;;;5035964;28;20027;-71
2022/06/12 00:12:39;;;;;;;2.88;2.53;;;18.10;78.40;;;;;;5036629;28;20087;-71
2022/06/12 00:15:06;;;;;;;3.83;2.40;;;18.10;78.70;;;;;;5032984;28;20032;-71
2022/06/12 00:17:31;;;;;;;4.15;2.47;;;18.10;78.80;;;;;;5032925;28;20025;-71
2022/06/12 00:19:57;;;;;;;3.53;2.40;;;18.00;78.90;;;;;;5032121;28;20030;-71
2022/06/12 00:22:23;;;;;;;5.18;2.45;;;18.00;79.10;;;;;;5039504;28;20116;-71
2022/06/12 00:24:49;;;;;;;4.25;2.45;;;18.00;79.20;;;;;;5035282;28;20127;-72
2022/06/12 00:27:15;;;;;;;3.03;1.98;;;18.00;79.50;;;;;;5035465;28;20025;-71
2022/06/12 00:29:42;;;;;;;2.03;1.80;;;18.00;79.90;;;;;;5031371;28;20744;-71
2022/06/12 00:32:16;;;;;;;4.35;2.22;;;18.00;79.60;;;;;;5032202;28;20037;-72
2022/06/12 00:34:44;;;;;;;5.03;2.47;;;18.00;80.00;;;;;;5040315;28;20124;-71
2022/06/12 00:37:12;;;;;;;3.35;2.33;;;17.90;80.00;;;;;;5038501;28;20170;-71
2022/06/12 00:39:41;;;;;;;2.10;1.83;;;17.90;80.00;;;;;;5037508;28;20166;-71
2022/06/12 00:42:09;;;;;;;2.63;1.98;;;17.80;80.10;;;;;;5038670;28;20515;-71
2022/06/12 00:44:42;;;;;;;4.03;2.08;;;17.70;80.40;;;;;;5035592;28;20044;-71
2022/06/12 00:47:13;;;;;;;2.58;2.15;;;17.70;80.90;;;;;;5033883;28;20083;-71
2022/06/12 00:49:58;;;;;;;4.18;2.10;;;17.60;81.30;;;;;;5033236;28;20032;-72
2022/06/12 00:52:44;;;;;;;3.53;2.35;;;17.60;81.50;;;;;;5032293;28;20078;-71
2022/06/12 00:55:24;;;;;;;3.65;2.15;;;17.50;81.70;;;;;;5038960;28;20079;-71
2022/06/12 00:57:53;;;;;;;3.50;2.70;;;17.50;81.80;;;;;;5035892;28;20021;-71
2022/06/12 01:00:19;;;;;;;4.28;2.50;;;17.40;82.30;;;;;;5034558;28;20063;-72
2022/06/12 01:02:45;;;;;;;6.15;3.00;;;17.40;82.70;;;;;;5031251;28;20025;-72
2022/06/12 01:08:03;;;;;;;4.30;2.33;;;17.30;83.20;;;;;;5033598;28;20037;-71
2022/06/12 01:10:30;;;;;;;4.13;2.50;;;17.20;83.10;;;;;;5030237;28;20037;-71
2022/06/12 01:13:02;;;;;;;2.83;2.20;;;17.20;83.40;;;;;;5036546;28;20034;-72
2022/06/12 01:15:32;;;;;;;3.38;2.30;;;17.10;83.80;;;;;;5033998;28;20025;-72
2022/06/12 01:17:59;;;;;;;4.00;2.28;;;17.10;84.10;;;;;;5032282;28;20038;-71
2022/06/12 01:20:30;;;;;;;5.90;2.50;;;17.00;84.50;;;;;;5034536;28;20026;-71
2022/06/12 01:23:11;;;;;;;4.97;2.72;;;17.00;84.90;;;;;;5033825;28;20029;-71
2022/06/12 01:26:08;;;;;;;4.05;2.45;;;17.00;85.10;;;;;;5032955;28;20021;-71
2022/06/12 01:28:45;;;;;;;;;;;16.90;85.60;;;;;;5028312;28;20036;-71
2022/06/12 01:31:35;;;;;;;4.88;2.40;;;16.90;86.00;;;;;;5033512;28;19935;-71
2022/06/12 01:34:30;;;;;;;5.60;2.63;;;16.80;86.40;;;;;;5032090;28;20052;-72
2022/06/12 01:37:12;;;;;;;3.63;2.53;;;16.80;86.60;;;;;;5031875;28;20773;-71
2022/06/12 01:39:47;;;;;;;6.47;2.88;;;16.70;87.60;;;;;;5032690;28;20452;-71
2022/06/12 01:42:22;;;;;;;3.90;2.30;;;16.60;87.40;;;;;;5035504;28;20043;-71
2022/06/12 01:45:03;;;;;;;2.58;2.38;;;16.50;87.90;;;;;;5028575;28;20025;-71
2022/06/12 01:47:53;;;;;;;4.75;2.80;;;16.50;88.30;;;;;;5033529;28;20025;-71
2022/06/12 01:50:50;;;;;;;3.10;2.67;;;16.50;89.00;;;;;;5032136;28;20040;-71
2022/06/12 01:53:42;;;;;;;5.30;3.10;;;16.60;89.50;;;;;;5036474;28;20050;-71
2022/06/12 01:56:24;;;;;;;6.15;3.22;;;16.60;90.00;;;;;;5033968;28;20064;-71
2022/06/12 01:59:31;;;;;;;6.65;3.45;;;16.70;90.10;;;;;;5036064;28;20041;-71
2022/06/12 02:02:28;;;;;;;8.73;3.92;;;16.70;90.30;;;;;;5018989;28;20036;-68
2022/06/12 02:04:59;;;;;;;7.35;3.63;;;16.80;90.40;;;;;;5004329;28;20040;-71
2022/06/12 02:07:33;;;;;;;7.90;4.07;;;16.80;90.40;;;;;;5031597;28;20029;-71
2022/06/12 02:10:32;;;;;;;7.40;4.70;;;16.90;90.50;;;;;;5034151;28;20683;-69
2022/06/12 02:13:22;;;;;;;5.20;3.75;;;16.80;90.50;;;;;;5043074;28;20036;-71
2022/06/12 02:15:54;;;;;;;6.30;3.95;;;16.90;90.60;;;;;;5020620;28;20044;-69
2022/06/12 02:18:25;;;;;;;6.47;3.92;;;16.80;90.70;;;;;;5035707;28;20040;-68
2022/06/12 02:21:02;;;;;;;7.00;3.97;;;16.80;90.60;;;;;;5032793;28;20021;-72
2022/06/12 02:23:34;;;;;;;4.40;4.00;;;16.90;90.60;;;;;;5031834;28;20041;-71
2022/06/12 02:26:02;;;;;;;6.32;4.57;;;16.90;90.70;;;;;;5049844;28;20090;-72
2022/06/12 02:28:39;;;;;;;5.90;3.72;;;16.90;90.60;;;;;;5040319;28;20025;-71
2022/06/12 02:31:11;;;;;;;5.53;3.75;;;16.90;90.60;;;;;;5038279;28;20033;-71
2022/06/12 02:33:41;;;;;;;5.32;3.83;;;16.90;90.60;;;;;;5034123;28;20033;-72
2022/06/12 02:36:21;;;;;;;6.68;3.38;;;16.80;90.50;;;;;;5044218;28;20086;-70
2022/06/12 02:39:16;;;;;;;6.22;3.95;;;16.80;90.60;;;;;;5041387;28;20037;-71
2022/06/12 02:41:53;;;;;;;5.53;3.72;;;16.80;90.70;;;;;;5037267;28;20102;-72
2022/06/12 02:44:32;;;;;;;5.80;4.30;;;16.80;90.80;;;;;;5035941;28;20186;-70
2022/06/12 02:47:12;;;;;;;6.53;4.35;;;16.80;90.90;;;;;;5032406;28;20037;-71
2022/06/12 02:49:40;;;;;;;5.63;4.25;;;16.70;90.90;;;;;;5040977;28;20495;-71
2022/06/12 02:52:20;;;;;;;6.40;4.80;;;16.70;91.00;;;;;;5038978;28;20711;-71
2022/06/12 02:55:11;;;;;;;7.88;4.70;;;16.70;91.20;;;;;;5033260;28;20041;-71
2022/06/12 02:57:57;;;;;;;6.00;4.50;;;16.70;91.40;;;;;;5037507;28;20059;-70
2022/06/12 03:00:30;;;;;;;5.85;4.72;;;16.70;91.50;;;;;;5037566;28;20507;-71
2022/06/12 03:03:15;;;;;;;8.10;4.40;;;16.80;91.60;;;;;;5034321;28;20037;-72
2022/06/12 03:05:46;;;;;;;6.32;4.20;;;16.90;91.60;;;;;;5043825;28;20021;-72
2022/06/12 03:08:18;;;;;;;7.15;4.20;;;17.00;91.40;;;;;;5039672;28;20061;-72
2022/06/12 03:10:52;;;;;;;6.57;4.35;;;17.20;91.30;;;;;;5033673;28;20093;-71
2022/06/12 03:13:20;;;;;;;5.95;3.97;;;17.30;91.00;;;;;;5038043;28;20047;-71
2022/06/12 03:15:51;;;;;;;4.20;3.80;;;17.40;90.80;;;;;;5036676;28;20311;-72
2022/06/12 03:18:32;;;;;;;5.20;4.00;;;17.50;90.70;;;;;;5045765;28;20040;-72
2022/06/12 03:21:20;;;;;;;4.97;3.92;;;17.60;90.30;;;;;;5036919;28;20047;-72
2022/06/12 03:24:09;;;;;;;4.30;3.65;;;17.60;90.10;;;;;;5038894;28;20108;-72
2022/06/12 03:27:02;;;;;;;4.30;3.90;;;17.70;90.00;;;;;;5037249;28;20051;-72
2022/06/12 03:29:53;;;;;;;4.25;3.83;;;17.70;89.70;;;;;;5033587;28;20041;-72
2022/06/12 03:32:30;;;;;;;6.57;3.90;;;17.80;89.30;;;;;;5046251;28;20119;-72
2022/06/12 03:35:09;;;;;;;4.90;3.33;;;17.80;88.90;;;;;;5041326;28;20409;-72
2022/06/12 03:37:47;;;;;;;5.40;3.70;;;17.80;88.80;;;;;;5038450;28;20038;-72
2022/06/12 03:40:32;;;;;;;6.35;3.80;;;17.90;88.70;;;;;;5041043;28;20033;-72
2022/06/12 03:43:16;;;;;;;8.48;3.58;;;17.80;88.00;;;;;;5042464;28;20032;-71
2022/06/12 03:45:51;;;;;;;4.95;3.53;;;17.80;88.30;;;;;;5037090;28;20056;-72
2022/06/12 03:48:29;;;;;;;4.82;3.25;;;17.80;88.40;;;;;;5037806;28;20044;-72
2022/06/12 03:51:25;;;;;;;5.53;4.18;;;18.00;87.90;;;;;;5041122;28;20025;-71
2022/06/12 03:54:00;;;;;;;5.90;4.23;;;18.20;87.70;;;;;;5035685;28;20120;-72
2022/06/12 03:59:32;;;;;;;7.13;4.38;;;18.50;86.70;;;;;;5040825;28;20028;-72
2022/06/12 04:02:01;;;;;;;7.03;3.93;;;18.50;86.90;;;;;;5041172;28;20520;-71
2022/06/12 04:04:30;;;;;;;5.82;4.13;;;18.60;86.40;;;;;;5032491;28;20776;-72
2022/06/12 04:06:59;;;;;;;7.28;4.45;;;18.50;86.60;;;;;;5038708;28;20056;-72
2022/06/12 04:09:28;;;;;;;9.20;4.50;;;18.30;88.70;;;;;;5037095;28;20059;-72
2022/06/12 04:12:03;;;;;;;5.18;4.43;;;18.00;90.80;;;;;;5040791;28;20032;-72
2022/06/12 04:14:50;;;;;;;6.03;4.30;;;17.80;92.10;;;;;;5039905;28;20040;-72
2022/06/12 04:17:15;;;;;;;7.03;4.75;;;17.60;93.20;;;;;;5044937;28;20102;-73
2022/06/12 04:19:59;;;;;;;9.18;4.93;;;17.60;93.40;;;;;;5035606;28;20044;-73
2022/06/12 04:22:34;;;;;;;9.57;6.60;;;17.50;94.00;;;;;;5031498;28;20100;-72
2022/06/12 04:25:17;;;;;;;10.77;6.45;;;17.60;94.60;;;;;;5032560;28;20033;-73
2022/06/12 04:27:45;;;;;;;7.53;5.75;;;17.60;95.00;;;;;;5039508;28;20060;-73
2022/06/12 04:30:26;;;;;;;9.68;5.88;;;17.60;95.30;;;;;;5033974;28;20025;-73
2022/06/12 04:33:10;;;;;;;7.50;6.20;;;17.70;95.40;;;;;;5041431;28;20032;-72
2022/06/12 04:35:45;;;;;;;6.75;6.03;;;17.70;95.30;;;;;;5037779;28;20029;-72
2022/06/12 04:38:10;;;;;;;9.00;6.15;;;17.80;95.30;;;;;;5034783;28;20142;-72
2022/06/12 04:40:36;;;;;;;7.05;6.35;;;17.90;95.10;;;;;;5042138;28;20492;-72
2022/06/12 04:43:02;;;;;;;8.85;6.47;;;17.90;95.10;;;;;;5034368;28;20065;-72
2022/06/12 04:45:28;;;;;;;8.32;6.32;;;18.00;95.20;;;;;;5038796;28;20746;-72
2022/06/12 04:47:54;;;;;;;12.88;7.35;;;18.00;95.30;;;;;;5036507;28;20021;-72
2022/06/12 04:50:20;;;;;;;7.25;6.03;;;18.10;95.40;;;;;;5044351;28;20472;-71
2022/06/12 04:52:45;;;;;;;7.03;6.25;;;18.20;95.40;;;;;;5038352;28;20041;-71
2022/06/12 04:55:12;;;;;;;6.90;6.18;;;18.20;95.20;;;;;;5034073;28;20485;-71
2022/06/12 04:57:39;;;;;;;9.85;6.05;;;18.30;95.10;;;;;;5035608;28;20548;-71
2022/06/12 05:00:06;;;;;;;7.13;6.20;;;18.20;95.20;;;;;;5038697;28;20493;-71
2022/06/12 05:02:32;;;;;;;7.03;6.07;;;18.20;95.20;;;;;;5035903;28;20039;-72
2022/06/12 05:04:58;;;;;;;7.55;6.65;;;18.30;95.40;;;;;;5039177;28;20041;-72
2022/06/12 05:07:24;;;;;;;12.68;8.32;;;18.50;95.70;;;;;;5038001;28;20054;-71
2022/06/12 05:09:49;;;;;;;11.00;8.32;;;18.80;94.80;;;;;;5039443;28;20079;-72
2022/06/12 05:12:15;;;;;;;7.38;6.57;;;19.10;94.20;;;;;;5041311;28;20021;-72
2022/06/12 05:14:42;;;;;;;8.73;7.68;;;19.40;93.70;;;;;;5036568;28;20075;-72
2022/06/12 05:17:14;;;;;;;10.25;7.63;;;19.60;93.50;;;;;;5034235;28;20767;-72
2022/06/12 05:19:42;;;;;;;9.95;6.80;;;19.70;93.10;;;;;;5037812;28;20040;-72
2022/06/12 05:22:09;;;;;;;9.15;6.53;;;19.70;92.80;;;;;;5035536;28;20128;-72
2022/06/12 05:24:36;;;;;;;7.88;6.53;;;19.80;92.80;;;;;;5034454;28;20036;-72
2022/06/12 05:27:05;;;;;;;9.15;6.88;;;19.90;92.70;;;;;;5033659;28;20541;-72
2022/06/12 05:29:35;;;;;;;6.95;6.22;;;20.00;92.60;;;;;;5032803;28;20026;-72
2022/06/12 05:32:02;;;;;;;7.00;6.30;;;20.00;92.50;;;;;;5033838;28;20037;-72
2022/06/12 05:34:29;;;;;;;9.23;6.43;;;20.00;92.40;;;;;;5033891;28;20032;-71
2022/06/12 05:36:56;;;;;;;10.10;7.40;;;20.10;92.60;;;;;;5036938;28;20939;-71
2022/06/12 05:39:22;;;;;;;7.32;6.40;;;20.40;92.00;;;;;;5043605;28;20791;-72
2022/06/12 05:41:49;;;;;;;10.27;6.68;;;20.50;91.60;;;;;;5035480;28;20028;-72
2022/06/12 05:44:16;;;;;;;9.75;7.10;;;20.70;91.60;;;;;;5040182;28;20029;-72
2022/06/12 05:46:43;;;;;;;7.90;6.53;;;20.90;91.20;;;;;;5034923;28;20045;-72
2022/06/12 05:49:09;;;;;;;11.35;7.45;;;21.10;90.90;;;;;;5039286;28;20024;-71
2022/06/12 05:51:36;;;;;;;8.80;6.30;;;21.10;90.80;;;;;;5036226;28;20024;-72
2022/06/12 05:54:03;;;;;;;8.82;6.35;;;21.00;90.70;;;;;;5039150;28;20132;-72
2022/06/12 05:56:29;;;;;;;8.30;6.93;;;20.80;90.70;;;;;;5034982;28;20029;-72
2022/06/12 05:58:56;;;;;;;7.65;5.90;;;20.70;91.10;;;;;;5031343;28;20028;-72
2022/06/12 06:01:23;;;;;;;6.35;5.50;;;20.70;91.50;;;;;;5039193;28;20039;-72
2022/06/12 06:03:49;;;;;;;9.40;6.32;;;20.90;91.70;;;;;;5034729;28;20560;-72
2022/06/12 06:06:25;;;;;;;10.32;7.93;;;21.40;91.40;;;;;;5038727;28;20527;-72
2022/06/12 06:08:52;;;;;;;7.72;6.00;;;21.80;90.70;;;;;;5037565;28;20120;-72
2022/06/12 06:11:18;;;;;;;8.52;6.95;;;22.10;89.80;;;;;;5040677;28;20075;-72
2022/06/12 06:13:45;;;;;;;9.57;6.68;;;22.40;88.80;;;;;;5034502;28;20029;-72
2022/06/12 06:16:11;;;;;;;5.97;5.43;;;22.50;87.60;;;;;;5032486;28;20067;-72
2022/06/12 06:18:39;;;;;;;7.32;5.88;;;22.50;87.60;;;;;;5033024;28;20064;-72
2022/06/12 06:21:06;;;;;;;6.50;5.90;;;22.60;87.60;;;;;;5034033;28;20714;-72
2022/06/12 06:23:32;;;;;;;9.13;6.38;;;22.80;86.50;;;;;;5037618;28;20045;-72
2022/06/12 06:25:58;;;;;;;7.28;5.78;;;22.90;86.20;;;;;;5036247;28;20032;-72
2022/06/12 06:28:24;;;;;;;7.10;5.45;;;22.90;85.40;;;;;;5031360;28;20548;-72
2022/06/12 06:30:49;;;;;;;7.00;5.63;;;22.80;85.70;;;;;;5035512;28;20022;-72
2022/06/12 06:33:15;;;;;;;6.82;5.70;;;22.80;85.80;;;;;;5029686;28;20052;-72
2022/06/12 06:35:42;;;;;;;6.30;5.40;;;22.60;86.80;;;;;;5039629;28;20025;-72
2022/06/12 06:38:08;;;;;;;7.88;6.00;;;22.40;87.00;;;;;;5033450;28;20043;-72
2022/06/12 06:40:35;;;;;;;6.20;5.60;;;22.20;87.50;;;;;;5037307;28;20033;-72
2022/06/12 06:43:01;;;;;;;6.80;5.55;;;22.00;88.60;;;;;;5040590;28;20033;-72
2022/06/12 06:48:13;;;;;;;6.40;5.68;;;21.80;88.70;;;;;;5032800;28;20056;-72
2022/06/12 06:50:39;;;;;;;8.57;5.53;;;21.70;89.60;;;;;;5032046;28;20760;-72
2022/06/12 06:53:05;;;;;;;5.90;5.30;;;21.70;90.10;;;;;;5033686;28;20059;-72
2022/06/12 06:55:32;;;;;;;7.22;5.82;;;21.70;90.50;;;;;;5038269;28;20750;-72
2022/06/12 06:57:58;;;;;;;6.70;5.45;;;21.70;90.60;;;;;;5033622;28;20033;-72
2022/06/12 07:00:28;;;;;;;5.53;4.85;;;21.70;90.90;;;;;;5033645;28;20060;-72
2022/06/12 07:02:54;;;;;;;5.38;4.55;;;21.60;91.20;;;;;;5032154;28;20481;-72
2022/06/12 07:05:21;;;;;;;7.80;5.50;;;21.60;91.30;;;;;;5048246;28;20037;-72
2022/06/12 07:07:47;;;;;;;6.78;5.93;;;21.60;91.00;;;;;;5034595;28;21412;-72
2022/06/12 07:10:17;;;;;;;6.65;4.80;;;21.80;90.70;;;;;;5033287;28;20030;-72
2022/06/12 07:12:43;;;;;;;5.03;4.53;;;22.10;89.50;;;;;;5043529;28;20452;-71
2022/06/12 07:15:11;;;;;;;5.80;3.95;;;22.40;88.20;;;;;;5029699;28;20462;-72
2022/06/12 07:17:37;;;;;;;5.30;4.65;;;22.60;86.60;;;;;;5030661;28;20037;-72
2022/06/12 07:20:03;;;;;;;5.63;4.20;;;22.70;85.40;;;;;;5035187;28;20159;-70
2022/06/12 07:22:29;;;;;;;5.05;3.90;;;22.60;85.00;;;;;;5039460;28;20033;-72
2022/06/12 07:24:55;;;;;;;5.00;4.50;;;22.50;86.20;;;;;;5042461;28;20040;-72
2022/06/12 07:27:21;;;;;;;5.10;4.28;;;22.30;87.60;;;;;;5035648;28;20082;-72
2022/06/12 07:29:46;;;;;;;5.22;3.90;;;22.20;87.20;;;;;;5034582;28;20040;-72
2022/06/12 07:32:12;;;;;;;7.50;4.53;;;22.20;87.40;;;;;;5038863;28;20034;-72
2022/06/12 07:34:38;;;;;;;4.63;4.10;;;22.10;88.60;;;;;;5041634;28;20036;-72
2022/06/12 07:37:06;;;;;;;5.80;4.18;;;22.10;88.80;;;;;;5039375;28;20037;-72
2022/06/12 07:39:32;;;;;;;5.40;3.80;;;22.10;89.80;;;;;;5035783;28;20029;-72
2022/06/12 07:41:58;;;;;;;5.70;3.72;;;22.10;90.30;;;;;;5041589;28;20147;-72
2022/06/12 07:44:27;;;;;;;5.43;3.97;;;22.30;88.50;;;;;;5032999;28;20899;-71
2022/06/12 07:46:56;;;;;;;4.32;3.28;;;22.40;86.60;;;;;;5031630;28;20037;-72
2022/06/12 07:49:25;;;;;;;5.88;3.42;;;22.50;86.50;;;;;;5035113;28;20037;-72
2022/06/12 07:51:52;;;;;;;4.78;3.80;;;22.60;86.50;;;;;;5034434;28;20473;-72
2022/06/12 07:54:19;;;;;;;4.05;3.63;;;22.80;86.80;;;;;;5039839;28;20025;-72
2022/06/12 07:56:46;;;;;;;4.57;3.20;;;23.00;85.20;;;;;;5038290;28;20084;-71
2022/06/12 07:59:12;;;;;;;4.00;3.08;;;23.20;85.00;;;;;;5039256;28;20064;-72
2022/06/12 08:01:38;;;;;;;4.95;2.90;;;23.30;85.20;;;;;;5054838;28;20032;-71
2022/06/12 08:04:05;;;;;;;7.28;2.67;;;23.50;84.60;;;;;;5034141;28;20039;-71
2022/06/12 08:06:31;;;;;;;5.35;2.92;;;23.70;80.00;;;;;;5041464;28;20135;-71
2022/06/12 08:08:57;;;;;;;3.58;2.00;;;23.80;75.80;;;;;;5032823;28;20588;-71
2022/06/12 08:11:25;;;;;;;4.15;2.20;;;24.00;74.10;;;;;;5040399;28;20063;-72
2022/06/12 08:13:52;;;;;;;6.00;2.40;;;24.30;73.60;;;;;;5036854;28;20057;-72
2022/06/12 08:16:18;;;;;;;3.28;1.67;;;24.60;73.10;;;;;;5036460;28;20029;-72
2022/06/12 08:18:44;;;;;;;4.28;1.65;;;25.10;70.60;;;;;;5031885;28;20413;-71
2022/06/12 08:21:14;;;;;;;2.47;1.88;;;25.50;68.90;;;;;;5041430;28;20037;-71
2022/06/12 08:24:00;;;;;;;3.33;1.90;;;25.70;68.60;;;;;;5041633;28;20032;-73
2022/06/12 08:26:28;;;;;;;5.77;1.93;;;25.90;67.00;;;;;;5033723;28;20432;-73
2022/06/12 08:29:02;;;;;;;3.83;2.28;;;25.90;66.60;;;;;;5037074;28;20280;-73
2022/06/12 08:31:42;;;;;;;2.97;2.13;;;26.10;66.60;;;;;;5031111;28;20033;-73
2022/06/12 08:34:31;;;;;;;2.33;1.77;;;26.30;66.60;;;;;;5054466;28;20048;-73
2022/06/12 08:37:01;;;;;;;3.10;1.88;;;26.30;64.90;;;;;;5040959;28;20073;-72
2022/06/12 08:39:27;;;;;;;5.72;1.70;;;26.60;63.70;;;;;;5038832;28;20485;-71
2022/06/12 08:42:05;;;;;;;4.20;1.75;;;26.90;63.10;;;;;;5037455;28;20122;-72
2022/06/12 08:44:33;;;;;;;4.40;2.20;;;26.90;64.00;;;;;;5038685;28;20036;-72
2022/06/12 08:47:14;;;;;;;3.35;1.90;;;27.00;61.70;;;;;;5034079;28;20041;-72
2022/06/12 08:50:01;;;;;;;4.20;2.10;;;26.80;61.50;;;;;;5031454;28;20099;-72
2022/06/12 08:52:48;;;;;;;3.97;1.60;;;26.70;62.30;;;;;;5037648;28;20443;-72
2022/06/12 08:55:14;;;;;;;5.05;1.77;;;26.70;62.20;;;;;;5036879;28;20034;-72
2022/06/12 08:57:49;;;;;;;4.57;1.95;;;26.90;64.50;;;;;;5039160;28;20488;-71
2022/06/12 09:00:27;;;;;;;5.30;1.83;;;27.10;61.50;;;;;;5035761;28;20037;-72
2022/06/12 09:02:53;;;;;;;3.83;1.70;;;27.30;60.40;;;;;;5034655;28;20043;-72
2022/06/12 09:05:52;;;;;;;4.63;1.70;;;27.50;60.00;;;;;;5033671;28;20037;-72
2022/06/12 09:08:31;;;;;;;4.28;1.77;;;27.50;59.20;;;;;;5037651;28;20066;-73
2022/06/12 09:11:23;;;;;;;6.35;1.95;;;27.80;57.30;;;;;;5035185;28;20053;-72
2022/06/12 09:13:55;;;;;;;5.53;2.17;;;28.20;55.90;;;;;;5036072;28;20037;-69
2022/06/12 09:16:40;;;;;;;6.30;2.75;;;28.20;55.50;;;;;;5033765;28;20037;-75
2022/06/12 09:19:25;;;;;;;5.20;1.52;;;28.00;54.80;;;;;;5029543;28;20614;-72
2022/06/12 09:21:58;;;;;;;4.30;1.50;;;27.60;55.50;;;;;;5040075;28;20037;-71
2022/06/12 09:24:46;;;;;;;5.13;1.88;;;27.30;56.50;;;;;;5038848;28;20337;-72
2022/06/12 09:27:23;;;;;;;5.60;2.20;;;27.40;57.20;;;;;;5035452;28;20028;-72
2022/06/12 09:30:05;;;;;;;4.05;1.90;;;27.60;56.00;;;;;;5032387;28;20025;-71
2022/06/12 09:32:41;;;;;;;6.20;1.88;;;27.80;55.80;;;;;;5036790;28;20714;-72
2022/06/12 09:35:22;;;;;;;5.03;1.80;;;27.90;54.40;;;;;;5029904;28;20037;-72
2022/06/12 09:40:57;;;;;;;6.82;2.33;;;28.10;54.00;;;;;;5033674;28;20037;-66
2022/06/12 09:43:47;;;;;;;3.97;1.58;;;28.20;52.70;;;;;;5032173;28;20772;-72
2022/06/12 09:46:34;;;;;;;4.72;1.52;;;28.40;52.00;;;;;;5035413;28;20048;-71
2022/06/12 09:49:46;;;;;;;8.52;2.05;;;28.40;51.00;;;;;;5033584;28;20432;-72
2022/06/12 09:52:53;;;;;;;6.40;1.73;;;28.40;51.90;;;;;;5041737;28;20028;-72
2022/06/12 09:55:40;;;;;;;6.05;1.90;;;28.20;51.70;;;;;;5033728;28;20079;-72
2022/06/12 09:58:32;;;;;;;9.30;1.80;;;28.00;51.90;;;;;;5030915;28;20203;-63
2022/06/12 10:01:21;;;;;;;7.32;2.30;;;27.70;51.80;;;;;;5033238;28;20063;-64
2022/06/12 10:04:03;;;;;;;7.40;2.20;;;27.30;50.80;;;;;;5031345;28;20068;-64
2022/06/12 10:06:42;;;;;;;8.82;2.60;;;27.20;51.30;;;;;;5033244;28;20033;-64
2022/06/12 10:09:30;;;;;;;7.40;4.30;;;27.10;49.30;;;;;;5034945;28;20048;-64
2022/06/12 10:12:03;;;;;;;7.05;3.30;;;27.00;49.70;;;;;;5036040;28;20055;-64
2022/06/12 10:14:37;;;;;;;7.45;3.30;;;27.20;48.60;;;;;;5035038;28;20080;-64
2022/06/12 10:17:12;;;;;;;9.77;4.32;;;27.50;48.80;;;;;;5032751;28;20041;-63
2022/06/12 10:19:57;;;;;;;11.70;5.32;;;27.60;48.90;;;;;;5029118;28;20028;-64
2022/06/12 10:22:33;;;;;;;7.03;3.30;;;27.40;48.80;;;;;;5037643;28;20051;-64
2022/06/12 10:25:00;;;;;;;4.50;2.20;;;27.40;48.80;;;;;;5034273;28;20033;-64
2022/06/12 10:27:42;;;;;;;8.90;3.85;;;27.40;48.90;;;;;;5043797;28;20062;-64
2022/06/12 10:30:40;;;;;;;9.70;4.25;;;27.30;49.40;;;;;;5035379;28;20017;-64
2022/06/12 10:33:16;;;;;;;7.03;2.60;;;27.20;49.50;;;;;;5036607;28;20138;-64
2022/06/12 10:35:54;;;;;;;6.32;2.17;;;27.20;48.20;;;;;;5029835;28;20033;-64
2022/06/12 10:38:29;;;;;;;7.35;1.60;;;27.30;46.80;;;;;;5032096;28;20398;-63
2022/06/12 10:40:58;;;;;;;5.47;1.40;;;27.50;46.60;;;;;;5033466;28;20033;-64
2022/06/12 10:43:35;;;;;;;6.03;1.90;;;27.50;46.50;;;;;;5034892;28;20381;-63
2022/06/12 10:46:03;;;;;;;4.80;1.60;;;27.50;47.00;;;;;;5032918;28;20033;-64
2022/06/12 10:48:34;;;;;;;8.52;2.00;;;27.60;48.00;;;;;;5035716;28;20021;-64
2022/06/12 10:51:05;;;;;;;16.95;8.45;;;28.10;45.70;;;;;;5033177;28;20040;-64
2022/06/12 10:53:32;;;;;;;8.15;3.42;;;29.60;43.70;;;;;;5035992;28;20116;-64
2022/06/12 10:56:21;;;;;;;8.75;3.55;;;30.00;42.90;;;;;;5046302;28;20148;-64
2022/06/12 10:59:00;;;;;;;5.40;2.47;;;29.50;42.30;;;;;;5039345;28;20044;-64
2022/06/12 11:01:52;;;;;;;15.95;8.35;;;29.10;43.50;;;;;;5037841;28;20036;-64
2022/06/12 11:04:37;;;;;;;6.90;1.80;;;28.70;44.10;;;;;;5045052;28;20144;-64
2022/06/12 11:07:27;;;;;;;9.13;4.28;;;28.50;44.20;;;;;;5034261;28;20021;-64
2022/06/12 11:10:05;;;;;;;8.48;4.35;;;28.20;44.50;;;;;;5039772;28;20032;-64
2022/06/12 11:12:32;;;;;;;5.35;2.17;;;27.90;44.60;;;;;;5037660;28;20051;-63
2022/06/12 11:15:20;;;;;;;8.07;4.35;;;27.70;46.40;;;;;;5038293;28;20120;-64
2022/06/12 11:17:49;;;;;;;7.50;3.42;;;27.70;46.30;;;;;;5038148;28;20120;-64
2022/06/12 11:20:17;;;;;;;9.80;2.70;;;27.70;46.40;;;;;;5035368;28;20235;-64
2022/06/12 11:23:15;;;;;;;8.60;2.30;;;27.70;46.50;;;;;;5034809;28;20043;-64
2022/06/12 11:25:46;;;;;;;5.65;2.50;;;27.80;45.90;;;;;;5034795;28;20036;-64
2022/06/12 11:28:41;;;;;;;4.30;1.85;;;27.60;45.80;;;;;;5040533;28;20045;-64
2022/06/12 11:31:17;;;;;;;5.30;1.58;;;27.50;46.10;;;;;;5034895;28;20045;-64
2022/06/12 11:34:00;;;;;;;8.55;2.60;;;27.30;46.70;;;;;;5039646;28;20037;-64
2022/06/12 11:36:32;;;;;;;5.70;1.98;;;27.20;46.60;;;;;;5038758;28;20466;-64
2022/06/12 11:39:19;;;;;;;4.22;1.73;;;27.20;48.80;;;;;;5039878;28;20100;-64
2022/06/12 11:42:23;;;;;;;5.70;2.20;;;27.30;46.90;;;;;;5038083;28;20063;-64
2022/06/12 11:45:24;;;;;;;6.53;2.05;;;27.30;45.80;;;;;;5004817;28;20063;-64
2022/06/12 11:47:58;;;;;;;6.68;2.17;;;27.30;46.60;;;;;;5035864;28;20041;-63
2022/06/12 11:50:30;;;;;;;5.07;2.10;;;27.50;45.30;;;;;;5039025;28;20037;-64
2022/06/12 11:53:14;;;;;;;6.53;2.13;;;27.70;45.20;;;;;;5037057;28;20131;-63
2022/06/12 11:55:50;;;;;;;5.68;2.60;;;27.80;45.00;;;;;;5039267;28;20397;-64
2022/06/12 11:58:40;;;;;;;5.90;2.08;;;27.90;45.00;;;;;;5032824;28;20040;-64
2022/06/12 12:01:24;;;;;;;5.28;1.83;;;28.00;45.00;;;;;;5042196;28;20048;-64
2022/06/12 12:03:56;;;;;;;8.07;2.00;;;28.20;44.40;;;;;;5038264;28;20036;-64
2022/06/12 12:06:31;;;;;;;7.70;2.05;;;28.10;43.90;;;;;;5038893;28;20476;-64
2022/06/12 12:09:21;;;;;;;6.25;2.28;;;27.90;43.90;;;;;;5034781;28;20029;-64
2022/06/12 12:11:55;;;;;;;5.63;2.00;;;27.90;44.60;;;;;;5037208;28;20082;-64
2022/06/12 12:14:25;;;;;;;4.60;1.98;;;27.80;44.90;;;;;;5033213;28;20041;-64
2022/06/12 12:17:03;;;;;;;5.80;1.90;;;27.70;45.30;;;;;;5036607;28;20025;-64
2022/06/12 12:20:17;;;;;;;5.32;2.10;;;27.50;45.60;;;;;;5039675;28;20076;-64
2022/06/12 12:22:49;;;;;;;5.88;2.05;;;27.50;45.40;;;;;;4959973;28;20034;-64
2022/06/12 12:25:21;;;;;;;4.35;2.42;;;27.30;45.80;;;;;;5031271;28;20060;-64
2022/06/12 12:27:52;;;;;;;9.65;2.67;;;26.90;45.50;;;;;;5039379;28;20040;-64
2022/06/12 12:30:24;;;;;;;6.78;2.60;;;26.80;46.10;;;;;;5034487;28;20029;-64
2022/06/12 12:32:53;;;;;;;4.95;2.50;;;26.70;45.60;;;;;;5038780;28;20029;-64
2022/06/12 12:41:13;;;;;;;5.22;2.30;;;27.20;45.40;;;;;;5042675;28;20028;-64
2022/06/12 12:43:57;;;;;;;5.45;2.03;;;27.40;45.50;;;;;;5044490;28;20037;-64
2022/06/12 12:46:39;;;;;;;4.32;1.60;;;27.30;45.20;;;;;;5039386;28;20746;-64
2022/06/12 12:49:05;;;;;;;7.60;1.92;;;27.30;45.60;;;;;;5036835;28;20052;-64
2022/06/12 12:51:33;;;;;;;4.28;1.65;;;27.30;44.80;;;;;;5035603;28;20210;-63
2022/06/12 12:54:25;;;;;;;4.20;1.80;;;27.40;43.90;;;;;;5040222;28;20139;-64
2022/06/12 12:56:59;;;;;;;3.13;1.67;;;27.40;44.60;;;;;;5032414;28;20095;-64
2022/06/12 12:59:53;;;;;;;5.07;1.80;;;27.30;44.60;;;;;;5032765;28;20029;-64
2022/06/12 13:02:25;;;;;;;5.25;1.80;;;27.50;43.70;;;;;;5011801;28;20049;-64
2022/06/12 13:04:55;;;;;;;5.00;2.10;;;27.50;44.20;;;;;;5036899;28;20032;-64
2022/06/12 13:07:58;;;;;;;2.85;1.50;;;27.60;45.20;;;;;;5038397;28;20025;-64
2022/06/12 13:10:49;;;;;;;7.45;2.15;;;27.60;43.20;;;;;;5033833;28;20538;-64
2022/06/12 13:13:38;;;;;;;3.80;1.50;;;27.40;44.60;;;;;;5037748;28;20040;-64
2022/06/12 13:16:21;;;;;;;7.60;1.90;;;27.20;44.40;;;;;;5034613;28;20033;-64
2022/06/12 13:19:37;;;;;;;6.85;2.00;;;27.10;44.50;;;;;;5033604;28;20021;-64
2022/06/12 13:22:25;;;;;;;5.25;1.83;;;27.30;43.80;;;;;;5020811;28;20037;-64
2022/06/12 13:25:06;;;;;;;6.80;2.25;;;27.40;44.00;;;;;;5033473;28;20493;-64
2022/06/12 13:27:45;;;;;;;4.45;1.50;;;27.60;43.40;;;;;;5034770;28;20481;-64
2022/06/12 13:30:21;;;;;;;4.13;1.70;;;27.60;42.70;;;;;;5034860;28;20033;-64
2022/06/12 13:32:46;;;;;;;5.65;1.73;;;27.70;42.50;;;;;;5032116;28;20457;-64
2022/06/12 13:35:31;;;;;;;9.40;2.00;;;27.80;42.90;;;;;;5035562;28;20136;-64
2022/06/12 13:38:05;;;;;;;6.90;1.70;;;27.80;42.30;;;;;;5037699;28;20054;-64
2022/06/12 13:40:38;;;;;;;6.72;1.65;;;27.80;42.40;;;;;;5041852;28;20400;-64
2022/06/12 13:43:11;;;;;;;6.82;1.95;;;27.90;42.40;;;;;;5040282;28;20055;-64